FLX1982 SBSV-SDIH
Flight info
| Callsign | FLX1982 |
|---|---|
| Flight time | N/A |
| Altitude | 10000 |
| Route | REA DCT 1257S03821W 1301S03828W 1300S03831W 1307S03847W 1323S03854W 1629S03904W 1643S03906W 1952S04005W 2003S04011W 2011S04011W 2231S04204W 2257S04229W 2302S04300W 2305S04328W 2314S04407W 2318S04427W 2331S04504W 2331S04550W DCT |
| Aircraft | SR22/L-SDGRY/S |
Departure
| Time | N/A |
|---|---|
| Airport | Deputado Luiz Eduardo Magalhães International Airport (SBSV) |
Arrival
| Time | 2026-05-05 03:37 |
|---|---|
| Airport | Fazenda Irohy Airport (SDIH) |
| Time | Latitude | Longitude | Altitude | Speed | Heading |
|---|---|---|---|---|---|
| 2026-05-04 23:52 | -15.49403 | -39.01763 | 5500 ft | 190 kts | 183° |
| 2026-05-04 23:52 | -15.50737 | -39.01832 | 5500 ft | 190 kts | 183° |
| 2026-05-04 23:52 | -15.52056 | -39.01900 | 5500 ft | 190 kts | 183° |
| 2026-05-04 23:52 | -15.53391 | -39.01968 | 5500 ft | 190 kts | 183° |
| 2026-05-04 23:53 | -15.54706 | -39.02036 | 5500 ft | 190 kts | 183° |
| 2026-05-04 23:53 | -15.56038 | -39.02104 | 5500 ft | 190 kts | 183° |
| 2026-05-04 23:53 | -15.57362 | -39.02172 | 5500 ft | 190 kts | 183° |
| 2026-05-04 23:53 | -15.58699 | -39.02241 | 5500 ft | 190 kts | 183° |
| 2026-05-04 23:54 | -15.60023 | -39.02309 | 5500 ft | 190 kts | 183° |
| 2026-05-04 23:54 | -15.61352 | -39.02377 | 5500 ft | 190 kts | 183° |
| 2026-05-04 23:54 | -15.62667 | -39.02445 | 5500 ft | 190 kts | 183° |
| 2026-05-04 23:54 | -15.63991 | -39.02513 | 5500 ft | 190 kts | 183° |
| 2026-05-04 23:55 | -15.65325 | -39.02581 | 5500 ft | 190 kts | 183° |
| 2026-05-04 23:55 | -15.66657 | -39.02650 | 5500 ft | 190 kts | 183° |
| 2026-05-04 23:55 | -15.69311 | -39.02786 | 5500 ft | 190 kts | 183° |
| 2026-05-04 23:56 | -15.70635 | -39.02854 | 5500 ft | 190 kts | 183° |
| 2026-05-04 23:57 | -15.76073 | -39.03134 | 5500 ft | 190 kts | 183° |
| 2026-05-04 23:57 | -15.77348 | -39.03199 | 5500 ft | 190 kts | 183° |
| 2026-05-04 23:57 | -15.78683 | -39.03268 | 5500 ft | 190 kts | 183° |
| 2026-05-04 23:57 | -15.80009 | -39.03336 | 5500 ft | 190 kts | 183° |
| 2026-05-04 23:58 | -15.81326 | -39.03404 | 5500 ft | 190 kts | 183° |
| 2026-05-04 23:58 | -15.82647 | -39.03472 | 5500 ft | 190 kts | 183° |
| 2026-05-04 23:58 | -15.83971 | -39.03540 | 5500 ft | 190 kts | 183° |
| 2026-05-04 23:58 | -15.85300 | -39.03609 | 5500 ft | 190 kts | 183° |
| 2026-05-04 23:59 | -15.86627 | -39.03677 | 5500 ft | 190 kts | 183° |
| 2026-05-04 23:59 | -15.87953 | -39.03745 | 5500 ft | 190 kts | 183° |
| 2026-05-04 23:59 | -15.89295 | -39.03814 | 5500 ft | 190 kts | 183° |
| 2026-05-04 23:59 | -15.90616 | -39.03883 | 5500 ft | 190 kts | 183° |
| 2026-05-05 00:00 | -15.91933 | -39.03950 | 5500 ft | 190 kts | 183° |
| 2026-05-05 00:00 | -15.92387 | -39.03974 | 5500 ft | 190 kts | 183° |
| 2026-05-05 00:00 | -15.94593 | -39.04087 | 5500 ft | 190 kts | 183° |
| 2026-05-05 00:00 | -15.95927 | -39.04156 | 5500 ft | 190 kts | 183° |
| 2026-05-05 00:01 | -15.97243 | -39.04224 | 5500 ft | 190 kts | 183° |
| 2026-05-05 00:01 | -15.98567 | -39.04292 | 5500 ft | 190 kts | 183° |
| 2026-05-05 00:01 | -15.99891 | -39.04361 | 5500 ft | 190 kts | 183° |
| 2026-05-05 00:01 | -16.01227 | -39.04430 | 5500 ft | 190 kts | 183° |
| 2026-05-05 00:02 | -16.02552 | -39.04498 | 5500 ft | 190 kts | 183° |
| 2026-05-05 00:02 | -16.03883 | -39.04567 | 5500 ft | 190 kts | 183° |
| 2026-05-05 00:02 | -16.05192 | -39.04634 | 5500 ft | 190 kts | 183° |
| 2026-05-05 00:02 | -16.06536 | -39.04704 | 5500 ft | 190 kts | 183° |
| 2026-05-05 00:03 | -16.07850 | -39.04771 | 5500 ft | 190 kts | 183° |
| 2026-05-05 00:03 | -16.09181 | -39.04840 | 5500 ft | 190 kts | 183° |
| 2026-05-05 00:03 | -16.10511 | -39.04908 | 5500 ft | 190 kts | 183° |
| 2026-05-05 00:03 | -16.11833 | -39.04977 | 5500 ft | 190 kts | 183° |
| 2026-05-05 00:04 | -16.13161 | -39.05045 | 5500 ft | 190 kts | 183° |
| 2026-05-05 00:04 | -16.14492 | -39.05114 | 5500 ft | 190 kts | 183° |
| 2026-05-05 00:04 | -16.15811 | -39.05182 | 5500 ft | 190 kts | 183° |
| 2026-05-05 00:04 | -16.17144 | -39.05251 | 5500 ft | 190 kts | 183° |
| 2026-05-05 00:05 | -16.18468 | -39.05320 | 5500 ft | 190 kts | 183° |
| 2026-05-05 00:05 | -16.19799 | -39.05388 | 5500 ft | 190 kts | 183° |
| 2026-05-05 00:05 | -16.21123 | -39.05456 | 5500 ft | 190 kts | 183° |
| 2026-05-05 00:05 | -16.22437 | -39.05524 | 5500 ft | 190 kts | 183° |
| 2026-05-05 00:06 | -16.23781 | -39.05594 | 5500 ft | 190 kts | 183° |
| 2026-05-05 00:06 | -16.25100 | -39.05662 | 5500 ft | 190 kts | 183° |
| 2026-05-05 00:06 | -16.26426 | -39.05731 | 5500 ft | 190 kts | 183° |
| 2026-05-05 00:06 | -16.27752 | -39.05799 | 5500 ft | 190 kts | 183° |
| 2026-05-05 00:07 | -16.29081 | -39.05868 | 5500 ft | 190 kts | 183° |
| 2026-05-05 00:07 | -16.30397 | -39.05936 | 5500 ft | 190 kts | 183° |
| 2026-05-05 00:07 | -16.31719 | -39.06005 | 5500 ft | 190 kts | 183° |
| 2026-05-05 00:07 | -16.33050 | -39.06074 | 5500 ft | 190 kts | 183° |
| 2026-05-05 00:08 | -16.34375 | -39.06142 | 5500 ft | 190 kts | 183° |
| 2026-05-05 00:08 | -16.35718 | -39.06212 | 5500 ft | 190 kts | 183° |
| 2026-05-05 00:08 | -16.37039 | -39.06280 | 5500 ft | 190 kts | 183° |
| 2026-05-05 00:08 | -16.38362 | -39.06348 | 5500 ft | 190 kts | 183° |
| 2026-05-05 00:09 | -16.39687 | -39.06417 | 5500 ft | 190 kts | 183° |
| 2026-05-05 00:09 | -16.41019 | -39.06486 | 5500 ft | 190 kts | 183° |
| 2026-05-05 00:09 | -16.42357 | -39.06556 | 5500 ft | 190 kts | 183° |
| 2026-05-05 00:09 | -16.43684 | -39.06624 | 5500 ft | 190 kts | 183° |
| 2026-05-05 00:10 | -16.44996 | -39.06692 | 5500 ft | 190 kts | 183° |
| 2026-05-05 00:10 | -16.46338 | -39.06762 | 5500 ft | 190 kts | 183° |
| 2026-05-05 00:10 | -16.47661 | -39.06830 | 5500 ft | 190 kts | 183° |
| 2026-05-05 00:10 | -16.48979 | -39.06908 | 5500 ft | 190 kts | 186° |
| 2026-05-05 00:11 | -16.50300 | -39.07130 | 5501 ft | 190 kts | 190° |
| 2026-05-05 00:11 | -16.51596 | -39.07377 | 5500 ft | 190 kts | 191° |
| 2026-05-05 00:11 | -16.52907 | -39.07629 | 5500 ft | 190 kts | 191° |
| 2026-05-05 00:11 | -16.54223 | -39.07881 | 5500 ft | 190 kts | 191° |
| 2026-05-05 00:12 | -16.55529 | -39.08130 | 5500 ft | 190 kts | 191° |
| 2026-05-05 00:12 | -16.56830 | -39.08379 | 5500 ft | 190 kts | 191° |
| 2026-05-05 00:12 | -16.58125 | -39.08626 | 5500 ft | 190 kts | 191° |
| 2026-05-05 00:12 | -16.59437 | -39.08877 | 5500 ft | 190 kts | 191° |
| 2026-05-05 00:13 | -16.60753 | -39.09128 | 5500 ft | 190 kts | 191° |
| 2026-05-05 00:13 | -16.62050 | -39.09376 | 5500 ft | 190 kts | 191° |
| 2026-05-05 00:13 | -16.63369 | -39.09627 | 5500 ft | 190 kts | 191° |
| 2026-05-05 00:13 | -16.64663 | -39.09875 | 5500 ft | 190 kts | 191° |
| 2026-05-05 00:14 | -16.65966 | -39.10123 | 5500 ft | 190 kts | 191° |
| 2026-05-05 00:14 | -16.67287 | -39.10376 | 5500 ft | 190 kts | 191° |
| 2026-05-05 00:14 | -16.68579 | -39.10622 | 5500 ft | 190 kts | 191° |
| 2026-05-05 00:14 | -16.69899 | -39.10875 | 5500 ft | 190 kts | 191° |
| 2026-05-05 00:15 | -16.71203 | -39.11124 | 5500 ft | 190 kts | 191° |
| 2026-05-05 00:15 | -16.72517 | -39.11376 | 5500 ft | 190 kts | 191° |
| 2026-05-05 00:15 | -16.73789 | -39.11724 | 5501 ft | 190 kts | 196° |
| 2026-05-05 00:15 | -16.75078 | -39.12113 | 5500 ft | 190 kts | 196° |
| 2026-05-05 00:16 | -16.76364 | -39.12503 | 5381 ft | 196 kts | 197° |
| 2026-05-05 00:16 | -16.77686 | -39.12904 | 5348 ft | 195 kts | 196° |
| 2026-05-05 00:16 | -16.78974 | -39.13294 | 5345 ft | 193 kts | 196° |
| 2026-05-05 00:16 | -16.80265 | -39.13685 | 5345 ft | 192 kts | 196° |
| 2026-05-05 00:17 | -16.81557 | -39.14076 | 5345 ft | 191 kts | 196° |
| 2026-05-05 00:17 | -16.82844 | -39.14466 | 5345 ft | 191 kts | 196° |
| 2026-05-05 00:17 | -16.84129 | -39.14855 | 5345 ft | 191 kts | 196° |
| 2026-05-05 00:17 | -16.85393 | -39.15237 | 5346 ft | 190 kts | 196° |
| 2026-05-05 00:18 | -16.86678 | -39.15626 | 5346 ft | 190 kts | 196° |
| 2026-05-05 00:18 | -16.87948 | -39.16011 | 5346 ft | 190 kts | 196° |
| 2026-05-05 00:18 | -16.89238 | -39.16402 | 5346 ft | 190 kts | 196° |
| 2026-05-05 00:18 | -16.90518 | -39.16790 | 5346 ft | 190 kts | 196° |
| 2026-05-05 00:19 | -16.91782 | -39.17173 | 5346 ft | 190 kts | 196° |
| 2026-05-05 00:19 | -16.93072 | -39.17563 | 5346 ft | 190 kts | 196° |
| 2026-05-05 00:19 | -16.94345 | -39.17949 | 5346 ft | 190 kts | 196° |
| 2026-05-05 00:19 | -16.95619 | -39.18335 | 5346 ft | 190 kts | 196° |
| 2026-05-05 00:20 | -16.96905 | -39.18725 | 5346 ft | 190 kts | 196° |
| 2026-05-05 00:20 | -16.98167 | -39.19108 | 5346 ft | 190 kts | 196° |
| 2026-05-05 00:20 | -16.99453 | -39.19498 | 5346 ft | 190 kts | 196° |
| 2026-05-05 00:20 | -17.00720 | -39.19882 | 5346 ft | 190 kts | 196° |
| 2026-05-05 00:21 | -17.01999 | -39.20270 | 5346 ft | 190 kts | 196° |
| 2026-05-05 00:21 | -17.03281 | -39.20659 | 5346 ft | 190 kts | 196° |
| 2026-05-05 00:21 | -17.04550 | -39.21044 | 5346 ft | 190 kts | 196° |
| 2026-05-05 00:21 | -17.05841 | -39.21435 | 5346 ft | 190 kts | 196° |
| 2026-05-05 00:22 | -17.07106 | -39.21819 | 5346 ft | 190 kts | 196° |
| 2026-05-05 00:22 | -17.08390 | -39.22209 | 5346 ft | 190 kts | 196° |
| 2026-05-05 00:22 | -17.09669 | -39.22597 | 5346 ft | 190 kts | 196° |
| 2026-05-05 00:22 | -17.10941 | -39.22984 | 5400 ft | 187 kts | 196° |
| 2026-05-05 00:23 | -17.12169 | -39.23356 | 5548 ft | 181 kts | 196° |
| 2026-05-05 00:23 | -17.13381 | -39.23723 | 5668 ft | 179 kts | 196° |
| 2026-05-05 00:23 | -17.14566 | -39.24083 | 5789 ft | 177 kts | 196° |
| 2026-05-05 00:23 | -17.15746 | -39.24441 | 5911 ft | 176 kts | 196° |
| 2026-05-05 00:24 | -17.16934 | -39.24802 | 6036 ft | 175 kts | 196° |
| 2026-05-05 00:24 | -17.18093 | -39.25153 | 6158 ft | 174 kts | 196° |
| 2026-05-05 00:24 | -17.19258 | -39.25507 | 6282 ft | 174 kts | 196° |
| 2026-05-05 00:24 | -17.20423 | -39.25861 | 6406 ft | 173 kts | 196° |
| 2026-05-05 00:25 | -17.21590 | -39.26216 | 6531 ft | 173 kts | 196° |
| 2026-05-05 00:25 | -17.22747 | -39.26567 | 6655 ft | 173 kts | 196° |
| 2026-05-05 00:25 | -17.23897 | -39.26917 | 6779 ft | 172 kts | 196° |
| 2026-05-05 00:25 | -17.25055 | -39.27269 | 6903 ft | 172 kts | 196° |
| 2026-05-05 00:26 | -17.26210 | -39.27620 | 7027 ft | 172 kts | 196° |
| 2026-05-05 00:26 | -17.27373 | -39.27974 | 7153 ft | 172 kts | 196° |
| 2026-05-05 00:26 | -17.28523 | -39.28323 | 7277 ft | 172 kts | 196° |
| 2026-05-05 00:26 | -17.29672 | -39.28673 | 7344 ft | 175 kts | 196° |
| 2026-05-05 00:27 | -17.30877 | -39.29040 | 7349 ft | 180 kts | 196° |
| 2026-05-05 00:27 | -17.32090 | -39.29410 | 7349 ft | 184 kts | 196° |
| 2026-05-05 00:27 | -17.33332 | -39.29789 | 7348 ft | 186 kts | 196° |
| 2026-05-05 00:27 | -17.34572 | -39.30167 | 7347 ft | 187 kts | 196° |
| 2026-05-05 00:28 | -17.35843 | -39.30553 | 7346 ft | 188 kts | 196° |
| 2026-05-05 00:28 | -17.37102 | -39.30937 | 7346 ft | 188 kts | 196° |
| 2026-05-05 00:28 | -17.38367 | -39.31323 | 7346 ft | 189 kts | 196° |
| 2026-05-05 00:28 | -17.39642 | -39.31711 | 7346 ft | 189 kts | 196° |
| 2026-05-05 00:29 | -17.40906 | -39.32097 | 7346 ft | 189 kts | 196° |
| 2026-05-05 00:29 | -17.42182 | -39.32485 | 7346 ft | 189 kts | 196° |
| 2026-05-05 00:29 | -17.43446 | -39.32870 | 7346 ft | 189 kts | 196° |
| 2026-05-05 00:29 | -17.44722 | -39.33259 | 7346 ft | 189 kts | 196° |
| 2026-05-05 00:30 | -17.45989 | -39.33645 | 7346 ft | 189 kts | 196° |
| 2026-05-05 00:30 | -17.47265 | -39.34034 | 7346 ft | 189 kts | 196° |
| 2026-05-05 00:30 | -17.48525 | -39.34419 | 7346 ft | 189 kts | 196° |
| 2026-05-05 00:30 | -17.49801 | -39.34808 | 7346 ft | 189 kts | 196° |
| 2026-05-05 00:31 | -17.51064 | -39.35193 | 7346 ft | 189 kts | 196° |
| 2026-05-05 00:31 | -17.52364 | -39.35590 | 7346 ft | 189 kts | 196° |
| 2026-05-05 00:31 | -17.53608 | -39.35969 | 7346 ft | 189 kts | 196° |
| 2026-05-05 00:31 | -17.54870 | -39.36354 | 7346 ft | 189 kts | 196° |
| 2026-05-05 00:32 | -17.56140 | -39.36742 | 7346 ft | 189 kts | 196° |
| 2026-05-05 00:32 | -17.57417 | -39.37131 | 7346 ft | 189 kts | 196° |
| 2026-05-05 00:32 | -17.58684 | -39.37518 | 7346 ft | 189 kts | 196° |
| 2026-05-05 00:32 | -17.59952 | -39.37905 | 7346 ft | 189 kts | 196° |
| 2026-05-05 00:33 | -17.61221 | -39.38293 | 7346 ft | 189 kts | 196° |
| 2026-05-05 00:33 | -17.62493 | -39.38681 | 7346 ft | 189 kts | 196° |
| 2026-05-05 00:33 | -17.63760 | -39.39068 | 7346 ft | 189 kts | 196° |
| 2026-05-05 00:33 | -17.65037 | -39.39458 | 7346 ft | 189 kts | 196° |
| 2026-05-05 00:34 | -17.66300 | -39.39844 | 7346 ft | 189 kts | 196° |
| 2026-05-05 00:34 | -17.67567 | -39.40231 | 7346 ft | 189 kts | 196° |
| 2026-05-05 00:34 | -17.68839 | -39.40620 | 7346 ft | 189 kts | 196° |
| 2026-05-05 00:34 | -17.70106 | -39.41008 | 7346 ft | 189 kts | 196° |
| 2026-05-05 00:35 | -17.71391 | -39.41400 | 7346 ft | 189 kts | 196° |
| 2026-05-05 00:35 | -17.72660 | -39.41788 | 7346 ft | 189 kts | 196° |
| 2026-05-05 00:35 | -17.73921 | -39.42174 | 7346 ft | 189 kts | 196° |
| 2026-05-05 00:35 | -17.75184 | -39.42560 | 7346 ft | 189 kts | 196° |
| 2026-05-05 00:36 | -17.76459 | -39.42950 | 7346 ft | 189 kts | 196° |
| 2026-05-05 00:36 | -17.77733 | -39.43340 | 7346 ft | 189 kts | 196° |
| 2026-05-05 00:36 | -17.79005 | -39.43729 | 7346 ft | 189 kts | 196° |
| 2026-05-05 00:36 | -17.80272 | -39.44117 | 7346 ft | 189 kts | 196° |
| 2026-05-05 00:37 | -17.81533 | -39.44503 | 7346 ft | 189 kts | 196° |
| 2026-05-05 00:37 | -17.82812 | -39.44894 | 7346 ft | 189 kts | 196° |
| 2026-05-05 00:37 | -17.84077 | -39.45282 | 7346 ft | 189 kts | 196° |
| 2026-05-05 00:37 | -17.85359 | -39.45674 | 7346 ft | 189 kts | 196° |
| 2026-05-05 00:38 | -17.86629 | -39.46063 | 7346 ft | 189 kts | 196° |
| 2026-05-05 00:38 | -17.87892 | -39.46450 | 7346 ft | 189 kts | 196° |
| 2026-05-05 00:38 | -17.89169 | -39.46841 | 7346 ft | 189 kts | 196° |
| 2026-05-05 00:38 | -17.90435 | -39.47229 | 7346 ft | 189 kts | 196° |
| 2026-05-05 00:39 | -17.91705 | -39.47619 | 7346 ft | 189 kts | 196° |
| 2026-05-05 00:39 | -17.92973 | -39.48007 | 7346 ft | 189 kts | 196° |
| 2026-05-05 00:39 | -17.94245 | -39.48397 | 7346 ft | 189 kts | 196° |
| 2026-05-05 00:39 | -17.95513 | -39.48786 | 7346 ft | 189 kts | 196° |
| 2026-05-05 00:40 | -17.96786 | -39.49176 | 7346 ft | 189 kts | 196° |
| 2026-05-05 00:40 | -17.98051 | -39.49564 | 7346 ft | 189 kts | 196° |
| 2026-05-05 00:40 | -17.99326 | -39.49955 | 7346 ft | 189 kts | 196° |
| 2026-05-05 00:40 | -18.00600 | -39.50346 | 7346 ft | 189 kts | 196° |
| 2026-05-05 00:41 | -18.01861 | -39.50733 | 7346 ft | 189 kts | 196° |
| 2026-05-05 00:41 | -18.03139 | -39.51125 | 7346 ft | 189 kts | 196° |
| 2026-05-05 00:41 | -18.04414 | -39.51516 | 7346 ft | 189 kts | 196° |
| 2026-05-05 00:41 | -18.05685 | -39.51906 | 7346 ft | 189 kts | 196° |
| 2026-05-05 00:42 | -18.06938 | -39.52291 | 7346 ft | 189 kts | 196° |
| 2026-05-05 00:42 | -18.08220 | -39.52685 | 7346 ft | 189 kts | 196° |
| 2026-05-05 00:42 | -18.09481 | -39.53072 | 7346 ft | 189 kts | 196° |
| 2026-05-05 00:42 | -18.10752 | -39.53462 | 7346 ft | 189 kts | 196° |
| 2026-05-05 00:43 | -18.12039 | -39.53858 | 7346 ft | 189 kts | 196° |
| 2026-05-05 00:43 | -18.13304 | -39.54246 | 7346 ft | 189 kts | 196° |
| 2026-05-05 00:43 | -18.14568 | -39.54635 | 7346 ft | 189 kts | 196° |
| 2026-05-05 00:43 | -18.15836 | -39.55024 | 7346 ft | 189 kts | 196° |
| 2026-05-05 00:44 | -18.17113 | -39.55417 | 7346 ft | 189 kts | 196° |
| 2026-05-05 00:44 | -18.18377 | -39.55806 | 7346 ft | 189 kts | 196° |
| 2026-05-05 00:44 | -18.19642 | -39.56195 | 7346 ft | 189 kts | 196° |
| 2026-05-05 00:44 | -18.20925 | -39.56589 | 7346 ft | 189 kts | 196° |
| 2026-05-05 00:45 | -18.22197 | -39.56980 | 7346 ft | 189 kts | 196° |
| 2026-05-05 00:45 | -18.23460 | -39.57369 | 7346 ft | 189 kts | 196° |
| 2026-05-05 00:45 | -18.24733 | -39.57761 | 7346 ft | 189 kts | 196° |
| 2026-05-05 00:45 | -18.26006 | -39.58152 | 7346 ft | 189 kts | 196° |
| 2026-05-05 00:46 | -18.27280 | -39.58544 | 7346 ft | 189 kts | 196° |
| 2026-05-05 00:46 | -18.28541 | -39.58932 | 7346 ft | 189 kts | 196° |
| 2026-05-05 00:46 | -18.29823 | -39.59327 | 7346 ft | 190 kts | 196° |
| 2026-05-05 00:46 | -18.31085 | -39.59715 | 7346 ft | 190 kts | 196° |
| 2026-05-05 00:47 | -18.32365 | -39.60110 | 7346 ft | 190 kts | 196° |
| 2026-05-05 00:47 | -18.33635 | -39.60501 | 7346 ft | 190 kts | 196° |
| 2026-05-05 00:47 | -18.34908 | -39.60893 | 7346 ft | 190 kts | 196° |
| 2026-05-05 00:47 | -18.36169 | -39.61281 | 7346 ft | 190 kts | 196° |
| 2026-05-05 00:48 | -18.37445 | -39.61675 | 7346 ft | 190 kts | 196° |
| 2026-05-05 00:48 | -18.38705 | -39.62063 | 7346 ft | 190 kts | 196° |
| 2026-05-05 00:48 | -18.39989 | -39.62458 | 7346 ft | 190 kts | 196° |
| 2026-05-05 00:48 | -18.41260 | -39.62850 | 7346 ft | 190 kts | 196° |
| 2026-05-05 00:49 | -18.42521 | -39.63239 | 7346 ft | 190 kts | 196° |
| 2026-05-05 00:49 | -18.43787 | -39.63629 | 7346 ft | 190 kts | 196° |
| 2026-05-05 00:49 | -18.45072 | -39.64026 | 7346 ft | 190 kts | 196° |
| 2026-05-05 00:49 | -18.46334 | -39.64415 | 7346 ft | 190 kts | 196° |
| 2026-05-05 00:50 | -18.47613 | -39.64809 | 7346 ft | 190 kts | 196° |
| 2026-05-05 00:50 | -18.48879 | -39.65200 | 7346 ft | 190 kts | 197° |
| 2026-05-05 00:50 | -18.50157 | -39.65595 | 7346 ft | 190 kts | 197° |
| 2026-05-05 00:50 | -18.51418 | -39.65984 | 7346 ft | 190 kts | 197° |
| 2026-05-05 00:51 | -18.52703 | -39.66381 | 7346 ft | 190 kts | 197° |
| 2026-05-05 00:51 | -18.53969 | -39.66771 | 7346 ft | 190 kts | 197° |
| 2026-05-05 00:51 | -18.55233 | -39.67162 | 7346 ft | 190 kts | 197° |
| 2026-05-05 00:51 | -18.56511 | -39.67556 | 7346 ft | 190 kts | 197° |
| 2026-05-05 00:52 | -18.57785 | -39.67950 | 7346 ft | 190 kts | 197° |
| 2026-05-05 00:52 | -18.59043 | -39.68339 | 7346 ft | 190 kts | 197° |
| 2026-05-05 00:52 | -18.60317 | -39.68732 | 7346 ft | 190 kts | 197° |
| 2026-05-05 00:52 | -18.61586 | -39.69124 | 7346 ft | 190 kts | 197° |
| 2026-05-05 00:53 | -18.62854 | -39.69516 | 7346 ft | 190 kts | 197° |
| 2026-05-05 00:53 | -18.64130 | -39.69911 | 7346 ft | 190 kts | 197° |
| 2026-05-05 00:53 | -18.65404 | -39.70305 | 7346 ft | 190 kts | 197° |
| 2026-05-05 00:53 | -18.66672 | -39.70697 | 7346 ft | 190 kts | 197° |
| 2026-05-05 00:54 | -18.67941 | -39.71089 | 7346 ft | 190 kts | 197° |
| 2026-05-05 00:54 | -18.69227 | -39.71487 | 7346 ft | 190 kts | 197° |
| 2026-05-05 00:54 | -18.70498 | -39.71880 | 7346 ft | 190 kts | 197° |
| 2026-05-05 00:54 | -18.71760 | -39.72271 | 7346 ft | 190 kts | 197° |
| 2026-05-05 00:55 | -18.73031 | -39.72664 | 7346 ft | 190 kts | 197° |
| 2026-05-05 00:55 | -18.74305 | -39.73058 | 7346 ft | 190 kts | 197° |
| 2026-05-05 00:55 | -18.75578 | -39.73452 | 7346 ft | 190 kts | 197° |
| 2026-05-05 00:55 | -18.76840 | -39.73843 | 7346 ft | 190 kts | 197° |
| 2026-05-05 00:56 | -18.78111 | -39.74237 | 7346 ft | 190 kts | 197° |
| 2026-05-05 00:56 | -18.79396 | -39.74635 | 7346 ft | 190 kts | 197° |
| 2026-05-05 00:56 | -18.80665 | -39.75028 | 7346 ft | 190 kts | 197° |
| 2026-05-05 00:56 | -18.81938 | -39.75422 | 7346 ft | 190 kts | 197° |
| 2026-05-05 00:57 | -18.83202 | -39.75814 | 7346 ft | 190 kts | 197° |
| 2026-05-05 00:57 | -18.84482 | -39.76210 | 7346 ft | 190 kts | 197° |
| 2026-05-05 00:57 | -18.85757 | -39.76605 | 7346 ft | 190 kts | 197° |
| 2026-05-05 00:57 | -18.87028 | -39.77000 | 7346 ft | 190 kts | 197° |
| 2026-05-05 00:58 | -18.88302 | -39.77394 | 7346 ft | 190 kts | 197° |
| 2026-05-05 00:58 | -18.89564 | -39.77786 | 7346 ft | 190 kts | 197° |
| 2026-05-05 00:58 | -18.90842 | -39.78182 | 7346 ft | 190 kts | 197° |
| 2026-05-05 00:58 | -18.92112 | -39.78576 | 7346 ft | 190 kts | 197° |
| 2026-05-05 00:59 | -18.93378 | -39.78969 | 7346 ft | 190 kts | 197° |
| 2026-05-05 00:59 | -18.94662 | -39.79367 | 7346 ft | 190 kts | 197° |
| 2026-05-05 00:59 | -18.95926 | -39.79760 | 7346 ft | 190 kts | 197° |
| 2026-05-05 00:59 | -18.97205 | -39.80157 | 7346 ft | 190 kts | 197° |
| 2026-05-05 01:00 | -18.98464 | -39.80547 | 7346 ft | 190 kts | 197° |
| 2026-05-05 01:00 | -18.99743 | -39.80944 | 7346 ft | 190 kts | 197° |
| 2026-05-05 01:00 | -19.01022 | -39.81342 | 7346 ft | 190 kts | 197° |
| 2026-05-05 01:00 | -19.02279 | -39.81732 | 7346 ft | 190 kts | 197° |
| 2026-05-05 01:01 | -19.03549 | -39.82127 | 7346 ft | 190 kts | 197° |
| 2026-05-05 01:01 | -19.04832 | -39.82525 | 7346 ft | 190 kts | 197° |
| 2026-05-05 01:01 | -19.06109 | -39.82922 | 7346 ft | 190 kts | 197° |
| 2026-05-05 01:01 | -19.07364 | -39.83312 | 7346 ft | 190 kts | 197° |
| 2026-05-05 01:02 | -19.08641 | -39.83709 | 7346 ft | 190 kts | 197° |
| 2026-05-05 01:02 | -19.09917 | -39.84106 | 7346 ft | 190 kts | 197° |
| 2026-05-05 01:02 | -19.11190 | -39.84502 | 7346 ft | 190 kts | 197° |
| 2026-05-05 01:02 | -19.12467 | -39.84899 | 7346 ft | 190 kts | 197° |
| 2026-05-05 01:03 | -19.13736 | -39.85294 | 7346 ft | 190 kts | 197° |
| 2026-05-05 01:03 | -19.15013 | -39.85691 | 7346 ft | 190 kts | 197° |
| 2026-05-05 01:03 | -19.16267 | -39.86081 | 7346 ft | 190 kts | 197° |
| 2026-05-05 01:03 | -19.17553 | -39.86481 | 7346 ft | 190 kts | 197° |
| 2026-05-05 01:04 | -19.18808 | -39.86872 | 7346 ft | 190 kts | 197° |
| 2026-05-05 01:04 | -19.21363 | -39.87667 | 7346 ft | 190 kts | 197° |
| 2026-05-05 01:04 | -19.22640 | -39.88065 | 7346 ft | 190 kts | 197° |
| 2026-05-05 01:05 | -19.23903 | -39.88458 | 7346 ft | 190 kts | 197° |
| 2026-05-05 01:05 | -19.25184 | -39.88857 | 7346 ft | 190 kts | 197° |
| 2026-05-05 01:05 | -19.25507 | -39.88958 | 7346 ft | 190 kts | 197° |
| 2026-05-05 01:05 | -19.26581 | -39.89292 | 7345 ft | 190 kts | 197° |
| 2026-05-05 01:06 | -19.27867 | -39.89693 | 7346 ft | 191 kts | 197° |
| 2026-05-05 01:06 | -19.29145 | -39.90091 | 7346 ft | 191 kts | 197° |
| 2026-05-05 01:06 | -19.30424 | -39.90490 | 7346 ft | 191 kts | 197° |
| 2026-05-05 01:06 | -19.31697 | -39.90888 | 7346 ft | 191 kts | 197° |
| 2026-05-05 01:07 | -19.32973 | -39.91285 | 7346 ft | 191 kts | 197° |
| 2026-05-05 01:07 | -19.34263 | -39.91688 | 7346 ft | 191 kts | 197° |
| 2026-05-05 01:07 | -19.35544 | -39.92087 | 7346 ft | 191 kts | 197° |
| 2026-05-05 01:07 | -19.36831 | -39.92489 | 7346 ft | 191 kts | 197° |
| 2026-05-05 01:08 | -19.38110 | -39.92888 | 7346 ft | 191 kts | 197° |
| 2026-05-05 01:08 | -19.39382 | -39.93285 | 7346 ft | 191 kts | 197° |
| 2026-05-05 01:08 | -19.40663 | -39.93684 | 7346 ft | 191 kts | 197° |
| 2026-05-05 01:08 | -19.41942 | -39.94084 | 7346 ft | 191 kts | 197° |
| 2026-05-05 01:09 | -19.43236 | -39.94488 | 7346 ft | 191 kts | 197° |
| 2026-05-05 01:09 | -19.44515 | -39.94887 | 7346 ft | 191 kts | 197° |
| 2026-05-05 01:09 | -19.45792 | -39.95286 | 7346 ft | 191 kts | 197° |
| 2026-05-05 01:09 | -19.47083 | -39.95689 | 7346 ft | 191 kts | 197° |
| 2026-05-05 01:10 | -19.48366 | -39.96090 | 7346 ft | 191 kts | 197° |
| 2026-05-05 01:10 | -19.49652 | -39.96492 | 7346 ft | 191 kts | 197° |
| 2026-05-05 01:10 | -19.50933 | -39.96892 | 7346 ft | 191 kts | 197° |
| 2026-05-05 01:10 | -19.52215 | -39.97293 | 7346 ft | 191 kts | 197° |
| 2026-05-05 01:11 | -19.53485 | -39.97690 | 7346 ft | 191 kts | 197° |
| 2026-05-05 01:11 | -19.54778 | -39.98094 | 7346 ft | 191 kts | 197° |
| 2026-05-05 01:11 | -19.56055 | -39.98494 | 7346 ft | 191 kts | 197° |
| 2026-05-05 01:11 | -19.57332 | -39.98893 | 7346 ft | 191 kts | 197° |
| 2026-05-05 01:12 | -19.58620 | -39.99296 | 7346 ft | 191 kts | 197° |
| 2026-05-05 01:12 | -19.59907 | -39.99699 | 7346 ft | 191 kts | 197° |
| 2026-05-05 01:12 | -19.61182 | -40.00098 | 7346 ft | 191 kts | 197° |
| 2026-05-05 01:12 | -19.62466 | -40.00499 | 7346 ft | 191 kts | 197° |
| 2026-05-05 01:13 | -19.63743 | -40.00899 | 7346 ft | 191 kts | 197° |
| 2026-05-05 01:13 | -19.65020 | -40.01299 | 7346 ft | 191 kts | 197° |
| 2026-05-05 01:13 | -19.66311 | -40.01703 | 7346 ft | 191 kts | 197° |
| 2026-05-05 01:13 | -19.67598 | -40.02107 | 7346 ft | 191 kts | 197° |
| 2026-05-05 01:14 | -19.68865 | -40.02503 | 7346 ft | 191 kts | 197° |
| 2026-05-05 01:14 | -19.70154 | -40.02907 | 7346 ft | 191 kts | 197° |
| 2026-05-05 01:14 | -19.71436 | -40.03309 | 7346 ft | 191 kts | 197° |
| 2026-05-05 01:14 | -19.72720 | -40.03711 | 7346 ft | 191 kts | 197° |
| 2026-05-05 01:15 | -19.74000 | -40.04113 | 7346 ft | 191 kts | 197° |
| 2026-05-05 01:15 | -19.75279 | -40.04514 | 7346 ft | 191 kts | 197° |
| 2026-05-05 01:15 | -19.76559 | -40.04915 | 7346 ft | 191 kts | 197° |
| 2026-05-05 01:15 | -19.77850 | -40.05320 | 7346 ft | 191 kts | 197° |
| 2026-05-05 01:16 | -19.79133 | -40.05722 | 7346 ft | 191 kts | 197° |
| 2026-05-05 01:16 | -19.80415 | -40.06124 | 7346 ft | 191 kts | 197° |
| 2026-05-05 01:16 | -19.81682 | -40.06522 | 7346 ft | 191 kts | 197° |
| 2026-05-05 01:16 | -19.82972 | -40.06927 | 7346 ft | 191 kts | 197° |
| 2026-05-05 01:17 | -19.84259 | -40.07331 | 7346 ft | 191 kts | 197° |
| 2026-05-05 01:17 | -19.85546 | -40.07735 | 7346 ft | 191 kts | 197° |
| 2026-05-05 01:17 | -19.86833 | -40.08139 | 7346 ft | 191 kts | 197° |
| 2026-05-05 01:17 | -19.88043 | -40.08685 | 7347 ft | 191 kts | 209° |
| 2026-05-05 01:18 | -19.89211 | -40.09396 | 7346 ft | 191 kts | 211° |
| 2026-05-05 01:18 | -19.90369 | -40.10115 | 7346 ft | 191 kts | 211° |
| 2026-05-05 01:18 | -19.91517 | -40.10827 | 7346 ft | 191 kts | 211° |
| 2026-05-05 01:18 | -19.92670 | -40.11542 | 7346 ft | 191 kts | 211° |
| 2026-05-05 01:19 | -19.93823 | -40.12257 | 7346 ft | 191 kts | 211° |
| 2026-05-05 01:19 | -19.94978 | -40.12972 | 7346 ft | 191 kts | 211° |
| 2026-05-05 01:19 | -19.96132 | -40.13687 | 7346 ft | 191 kts | 210° |
| 2026-05-05 01:19 | -19.97289 | -40.14403 | 7346 ft | 191 kts | 210° |
| 2026-05-05 01:20 | -19.98450 | -40.15122 | 7346 ft | 191 kts | 210° |
| 2026-05-05 01:20 | -19.99598 | -40.15833 | 7346 ft | 191 kts | 210° |
| 2026-05-05 01:20 | -20.00759 | -40.16553 | 7346 ft | 191 kts | 210° |
| 2026-05-05 01:20 | -20.01915 | -40.17269 | 7346 ft | 191 kts | 210° |
| 2026-05-05 01:21 | -20.03069 | -40.17984 | 7346 ft | 191 kts | 210° |
| 2026-05-05 01:21 | -20.04227 | -40.18701 | 7346 ft | 191 kts | 210° |
| 2026-05-05 01:21 | -20.05478 | -40.19144 | 7338 ft | 191 kts | 186° |
| 2026-05-05 01:21 | -20.06808 | -40.19206 | 7346 ft | 191 kts | 181° |
| 2026-05-05 01:22 | -20.08139 | -40.19228 | 7346 ft | 191 kts | 181° |
| 2026-05-05 01:22 | -20.09489 | -40.19246 | 7346 ft | 191 kts | 181° |
| 2026-05-05 01:22 | -20.10828 | -40.19264 | 7346 ft | 191 kts | 181° |
| 2026-05-05 01:22 | -20.12160 | -40.19281 | 7346 ft | 191 kts | 181° |
| 2026-05-05 01:23 | -20.13498 | -40.19299 | 7346 ft | 191 kts | 181° |
| 2026-05-05 01:23 | -20.14840 | -40.19316 | 7346 ft | 191 kts | 181° |
| 2026-05-05 01:23 | -20.16178 | -40.19334 | 7346 ft | 191 kts | 181° |
| 2026-05-05 01:23 | -20.17500 | -40.19352 | 7346 ft | 191 kts | 181° |
| 2026-05-05 01:24 | -20.18841 | -40.19369 | 7346 ft | 191 kts | 181° |
| 2026-05-05 01:24 | -20.20102 | -40.19799 | 7348 ft | 191 kts | 212° |
| 2026-05-05 01:24 | -20.21188 | -40.20602 | 7348 ft | 191 kts | 216° |
| 2026-05-05 01:24 | -20.22259 | -40.21444 | 7346 ft | 191 kts | 217° |
| 2026-05-05 01:25 | -20.23343 | -40.22304 | 7346 ft | 191 kts | 217° |
| 2026-05-05 01:25 | -20.24405 | -40.23147 | 7346 ft | 191 kts | 217° |
| 2026-05-05 01:25 | -20.25487 | -40.24008 | 7346 ft | 191 kts | 217° |
| 2026-05-05 01:25 | -20.26547 | -40.24852 | 7346 ft | 192 kts | 217° |
| 2026-05-05 01:26 | -20.27621 | -40.25706 | 7346 ft | 192 kts | 217° |
| 2026-05-05 01:26 | -20.28685 | -40.26554 | 7346 ft | 192 kts | 217° |
| 2026-05-05 01:26 | -20.29767 | -40.27416 | 7346 ft | 192 kts | 217° |
| 2026-05-05 01:26 | -20.30830 | -40.28263 | 7346 ft | 192 kts | 217° |
| 2026-05-05 01:27 | -20.31859 | -40.29081 | 7565 ft | 172 kts | 217° |
| 2026-05-05 01:27 | -20.32894 | -40.29906 | 7342 ft | 189 kts | 217° |
| 2026-05-05 01:27 | -20.33952 | -40.30750 | 7347 ft | 190 kts | 217° |
| 2026-05-05 01:27 | -20.35011 | -40.31595 | 7346 ft | 191 kts | 217° |
| 2026-05-05 01:28 | -20.36082 | -40.32449 | 7346 ft | 191 kts | 217° |
| 2026-05-05 01:28 | -20.37133 | -40.33288 | 7344 ft | 189 kts | 217° |
| 2026-05-05 01:28 | -20.38197 | -40.34137 | 7346 ft | 190 kts | 217° |
| 2026-05-05 01:28 | -20.39256 | -40.34982 | 7346 ft | 191 kts | 217° |
| 2026-05-05 01:29 | -20.40324 | -40.35834 | 7346 ft | 191 kts | 217° |
| 2026-05-05 01:29 | -20.41389 | -40.36685 | 7346 ft | 192 kts | 217° |
| 2026-05-05 01:29 | -20.42469 | -40.37547 | 7346 ft | 192 kts | 217° |
| 2026-05-05 01:29 | -20.43537 | -40.38400 | 7346 ft | 192 kts | 217° |
| 2026-05-05 01:30 | -20.44596 | -40.39245 | 7346 ft | 192 kts | 217° |
| 2026-05-05 01:30 | -20.45680 | -40.40111 | 7346 ft | 192 kts | 217° |
| 2026-05-05 01:30 | -20.46739 | -40.40957 | 7346 ft | 192 kts | 217° |
| 2026-05-05 01:30 | -20.47818 | -40.41820 | 7346 ft | 192 kts | 217° |
| 2026-05-05 01:31 | -20.48890 | -40.42676 | 7346 ft | 192 kts | 217° |
| 2026-05-05 01:31 | -20.49958 | -40.43530 | 7346 ft | 192 kts | 217° |
| 2026-05-05 01:31 | -20.51035 | -40.44391 | 7346 ft | 192 kts | 217° |
| 2026-05-05 01:31 | -20.52109 | -40.45250 | 7346 ft | 192 kts | 217° |
| 2026-05-05 01:32 | -20.53173 | -40.46100 | 7346 ft | 192 kts | 217° |
| 2026-05-05 01:32 | -20.54242 | -40.46956 | 7346 ft | 192 kts | 217° |
| 2026-05-05 01:32 | -20.55318 | -40.47816 | 7346 ft | 192 kts | 217° |
| 2026-05-05 01:32 | -20.56384 | -40.48669 | 7346 ft | 192 kts | 217° |
| 2026-05-05 01:33 | -20.57463 | -40.49533 | 7346 ft | 192 kts | 217° |
| 2026-05-05 01:33 | -20.58541 | -40.50396 | 7346 ft | 192 kts | 217° |
| 2026-05-05 01:33 | -20.59608 | -40.51251 | 7346 ft | 192 kts | 217° |
| 2026-05-05 01:33 | -20.60683 | -40.52112 | 7346 ft | 192 kts | 217° |
| 2026-05-05 01:34 | -20.61743 | -40.52960 | 7346 ft | 192 kts | 217° |
| 2026-05-05 01:34 | -20.62822 | -40.53825 | 7346 ft | 192 kts | 217° |
| 2026-05-05 01:34 | -20.63898 | -40.54687 | 7345 ft | 192 kts | 217° |
| 2026-05-05 01:34 | -20.64963 | -40.55541 | 7346 ft | 192 kts | 217° |
| 2026-05-05 01:35 | -20.66037 | -40.56401 | 7345 ft | 192 kts | 217° |
| 2026-05-05 01:35 | -20.67108 | -40.57260 | 7345 ft | 192 kts | 217° |
| 2026-05-05 01:35 | -20.68175 | -40.58115 | 7345 ft | 192 kts | 217° |
| 2026-05-05 01:35 | -20.69252 | -40.58979 | 7345 ft | 192 kts | 217° |
| 2026-05-05 01:36 | -20.70327 | -40.59842 | 7345 ft | 192 kts | 217° |
| 2026-05-05 01:36 | -20.71392 | -40.60696 | 7345 ft | 192 kts | 217° |
| 2026-05-05 01:36 | -20.72455 | -40.61549 | 7345 ft | 192 kts | 217° |
| 2026-05-05 01:36 | -20.73530 | -40.62412 | 7345 ft | 192 kts | 217° |
| 2026-05-05 01:37 | -20.74598 | -40.63268 | 7345 ft | 192 kts | 217° |
| 2026-05-05 01:37 | -20.75671 | -40.64130 | 7345 ft | 192 kts | 217° |
| 2026-05-05 01:37 | -20.76748 | -40.64995 | 7345 ft | 192 kts | 217° |
| 2026-05-05 01:37 | -20.77820 | -40.65855 | 7345 ft | 192 kts | 217° |
| 2026-05-05 01:38 | -20.78898 | -40.66721 | 7345 ft | 192 kts | 217° |
| 2026-05-05 01:38 | -20.79969 | -40.67582 | 7345 ft | 192 kts | 217° |
| 2026-05-05 01:38 | -20.81040 | -40.68442 | 7345 ft | 192 kts | 217° |
| 2026-05-05 01:38 | -20.82105 | -40.69299 | 7345 ft | 192 kts | 217° |
| 2026-05-05 01:39 | -20.83176 | -40.70159 | 7345 ft | 192 kts | 217° |
| 2026-05-05 01:39 | -20.84251 | -40.71023 | 7345 ft | 192 kts | 217° |
| 2026-05-05 01:39 | -20.85317 | -40.71881 | 7345 ft | 192 kts | 217° |
| 2026-05-05 01:39 | -20.86389 | -40.72743 | 7346 ft | 192 kts | 217° |
| 2026-05-05 01:40 | -20.87471 | -40.73613 | 7345 ft | 192 kts | 217° |
| 2026-05-05 01:40 | -20.88533 | -40.74468 | 7345 ft | 192 kts | 217° |
| 2026-05-05 01:40 | -20.89604 | -40.75329 | 7345 ft | 192 kts | 217° |
| 2026-05-05 01:40 | -20.90687 | -40.76201 | 7346 ft | 192 kts | 217° |
| 2026-05-05 01:41 | -20.91752 | -40.77058 | 7346 ft | 192 kts | 217° |
| 2026-05-05 01:41 | -20.92820 | -40.77919 | 7346 ft | 192 kts | 217° |
| 2026-05-05 01:41 | -20.93889 | -40.78779 | 7346 ft | 192 kts | 217° |
| 2026-05-05 01:41 | -20.94970 | -40.79650 | 7346 ft | 192 kts | 217° |
| 2026-05-05 01:42 | -20.96036 | -40.80509 | 7346 ft | 192 kts | 217° |
| 2026-05-05 01:42 | -20.97109 | -40.81374 | 7346 ft | 192 kts | 217° |
| 2026-05-05 01:42 | -20.98171 | -40.82230 | 7346 ft | 192 kts | 217° |
| 2026-05-05 01:42 | -20.99251 | -40.83100 | 7346 ft | 192 kts | 217° |
| 2026-05-05 01:43 | -21.00319 | -40.83961 | 7346 ft | 192 kts | 217° |
| 2026-05-05 01:43 | -21.01382 | -40.84817 | 7346 ft | 192 kts | 217° |
| 2026-05-05 01:43 | -21.02462 | -40.85689 | 7346 ft | 192 kts | 217° |
| 2026-05-05 01:43 | -21.03532 | -40.86552 | 7346 ft | 192 kts | 217° |
| 2026-05-05 01:44 | -21.04596 | -40.87411 | 7346 ft | 192 kts | 217° |
| 2026-05-05 01:44 | -21.05663 | -40.88272 | 7346 ft | 192 kts | 217° |
| 2026-05-05 01:44 | -21.06733 | -40.89136 | 7346 ft | 192 kts | 217° |
| 2026-05-05 01:44 | -21.07804 | -40.90000 | 7346 ft | 192 kts | 217° |
| 2026-05-05 01:45 | -21.08872 | -40.90862 | 7346 ft | 192 kts | 217° |
| 2026-05-05 01:45 | -21.09956 | -40.91738 | 7346 ft | 192 kts | 217° |
| 2026-05-05 01:45 | -21.11027 | -40.92603 | 7346 ft | 192 kts | 217° |
| 2026-05-05 01:45 | -21.12087 | -40.93459 | 7346 ft | 192 kts | 217° |
| 2026-05-05 01:46 | -21.13156 | -40.94323 | 7346 ft | 192 kts | 217° |
| 2026-05-05 01:46 | -21.14232 | -40.95192 | 7346 ft | 192 kts | 217° |
| 2026-05-05 01:46 | -21.15296 | -40.96052 | 7346 ft | 192 kts | 217° |
| 2026-05-05 01:46 | -21.16357 | -40.96910 | 7346 ft | 192 kts | 217° |
| 2026-05-05 01:47 | -21.17426 | -40.97774 | 7346 ft | 192 kts | 217° |
| 2026-05-05 01:47 | -21.18498 | -40.98641 | 7346 ft | 192 kts | 217° |
| 2026-05-05 01:47 | -21.19569 | -40.99507 | 7346 ft | 192 kts | 217° |
| 2026-05-05 01:47 | -21.20635 | -41.00370 | 7346 ft | 192 kts | 217° |
| 2026-05-05 01:48 | -21.21698 | -41.01230 | 7346 ft | 192 kts | 217° |
| 2026-05-05 01:48 | -21.22775 | -41.02102 | 7346 ft | 192 kts | 217° |
| 2026-05-05 01:48 | -21.23838 | -41.02963 | 7346 ft | 192 kts | 217° |
| 2026-05-05 01:48 | -21.24912 | -41.03831 | 7346 ft | 192 kts | 217° |
| 2026-05-05 01:49 | -21.25979 | -41.04695 | 7346 ft | 192 kts | 217° |
| 2026-05-05 01:49 | -21.27058 | -41.05570 | 7346 ft | 192 kts | 217° |
| 2026-05-05 01:49 | -21.28115 | -41.06426 | 7346 ft | 192 kts | 217° |
| 2026-05-05 01:49 | -21.29190 | -41.07297 | 7346 ft | 192 kts | 217° |
| 2026-05-05 01:50 | -21.30255 | -41.08160 | 7346 ft | 192 kts | 217° |
| 2026-05-05 01:50 | -21.31333 | -41.09034 | 7346 ft | 192 kts | 217° |
| 2026-05-05 01:50 | -21.32392 | -41.09893 | 7346 ft | 192 kts | 217° |
| 2026-05-05 01:50 | -21.33465 | -41.10762 | 7346 ft | 192 kts | 217° |
| 2026-05-05 01:51 | -21.34535 | -41.11630 | 7346 ft | 192 kts | 217° |
| 2026-05-05 01:51 | -21.35609 | -41.12501 | 7346 ft | 192 kts | 217° |
| 2026-05-05 01:51 | -21.36673 | -41.13364 | 7346 ft | 192 kts | 217° |
| 2026-05-05 01:51 | -21.37739 | -41.14229 | 7346 ft | 192 kts | 217° |
| 2026-05-05 01:52 | -21.38811 | -41.15100 | 7346 ft | 192 kts | 217° |
| 2026-05-05 01:52 | -21.39886 | -41.15972 | 7346 ft | 192 kts | 217° |
| 2026-05-05 01:52 | -21.40949 | -41.16835 | 7375 ft | 190 kts | 217° |
| 2026-05-05 01:52 | -21.41988 | -41.17679 | 7501 ft | 186 kts | 217° |
| 2026-05-05 01:53 | -21.43028 | -41.18523 | 7511 ft | 188 kts | 217° |
| 2026-05-05 01:53 | -21.44074 | -41.19372 | 7511 ft | 189 kts | 217° |
| 2026-05-05 01:53 | -21.45135 | -41.20235 | 7511 ft | 190 kts | 217° |
| 2026-05-05 01:53 | -21.46192 | -41.21094 | 7511 ft | 191 kts | 217° |
| 2026-05-05 01:54 | -21.47253 | -41.21957 | 7511 ft | 191 kts | 217° |
| 2026-05-05 01:54 | -21.48312 | -41.22818 | 7510 ft | 191 kts | 217° |
| 2026-05-05 01:54 | -21.49376 | -41.23682 | 7510 ft | 191 kts | 217° |
| 2026-05-05 01:54 | -21.50438 | -41.24547 | 7510 ft | 192 kts | 217° |
| 2026-05-05 01:55 | -21.51499 | -41.25410 | 7510 ft | 192 kts | 217° |
| 2026-05-05 01:55 | -21.52574 | -41.26284 | 7510 ft | 192 kts | 217° |
| 2026-05-05 01:55 | -21.53639 | -41.27151 | 7510 ft | 192 kts | 217° |
| 2026-05-05 01:55 | -21.54694 | -41.28010 | 7510 ft | 192 kts | 217° |
| 2026-05-05 01:56 | -21.55769 | -41.28885 | 7510 ft | 192 kts | 217° |
| 2026-05-05 01:56 | -21.56828 | -41.29747 | 7510 ft | 192 kts | 217° |
| 2026-05-05 01:56 | -21.57897 | -41.30618 | 7510 ft | 192 kts | 217° |
| 2026-05-05 01:56 | -21.58959 | -41.31482 | 7510 ft | 192 kts | 217° |
| 2026-05-05 01:57 | -21.60026 | -41.32352 | 7510 ft | 192 kts | 217° |
| 2026-05-05 01:57 | -21.61091 | -41.33219 | 7510 ft | 192 kts | 217° |
| 2026-05-05 01:57 | -21.62149 | -41.34082 | 7510 ft | 192 kts | 217° |
| 2026-05-05 01:57 | -21.63222 | -41.34956 | 7510 ft | 192 kts | 217° |
| 2026-05-05 01:58 | -21.64280 | -41.35819 | 7510 ft | 192 kts | 217° |
| 2026-05-05 01:58 | -21.65343 | -41.36686 | 7510 ft | 192 kts | 217° |
| 2026-05-05 01:58 | -21.66409 | -41.37555 | 7510 ft | 192 kts | 217° |
| 2026-05-05 01:58 | -21.67478 | -41.38427 | 7510 ft | 192 kts | 217° |
| 2026-05-05 01:59 | -21.68548 | -41.39301 | 7510 ft | 192 kts | 217° |
| 2026-05-05 01:59 | -21.69613 | -41.40169 | 7510 ft | 192 kts | 217° |
| 2026-05-05 01:59 | -21.70677 | -41.41038 | 7510 ft | 192 kts | 217° |
| 2026-05-05 01:59 | -21.71738 | -41.41904 | 7510 ft | 192 kts | 217° |
| 2026-05-05 02:00 | -21.72802 | -41.42773 | 7510 ft | 192 kts | 217° |
| 2026-05-05 02:00 | -21.73862 | -41.43638 | 7510 ft | 192 kts | 217° |
| 2026-05-05 02:00 | -21.74934 | -41.44514 | 7510 ft | 192 kts | 217° |
| 2026-05-05 02:00 | -21.75993 | -41.45380 | 7510 ft | 192 kts | 217° |
| 2026-05-05 02:01 | -21.77053 | -41.46246 | 7510 ft | 192 kts | 217° |
| 2026-05-05 02:01 | -21.78115 | -41.47113 | 7510 ft | 192 kts | 217° |
| 2026-05-05 02:01 | -21.79183 | -41.47986 | 7510 ft | 192 kts | 217° |
| 2026-05-05 02:01 | -21.80249 | -41.48857 | 7510 ft | 192 kts | 217° |
| 2026-05-05 02:02 | -21.81309 | -41.49725 | 7510 ft | 192 kts | 217° |
| 2026-05-05 02:02 | -21.82373 | -41.50595 | 7510 ft | 192 kts | 217° |
| 2026-05-05 02:02 | -21.83441 | -41.51468 | 7510 ft | 192 kts | 217° |
| 2026-05-05 02:02 | -21.84505 | -41.52339 | 7510 ft | 192 kts | 217° |
| 2026-05-05 02:03 | -21.85568 | -41.53210 | 7510 ft | 192 kts | 217° |
| 2026-05-05 02:03 | -21.86622 | -41.54073 | 7509 ft | 190 kts | 217° |
| 2026-05-05 02:03 | -21.87682 | -41.54940 | 7510 ft | 191 kts | 217° |
| 2026-05-05 02:03 | -21.88739 | -41.55805 | 7511 ft | 191 kts | 217° |
| 2026-05-05 02:04 | -21.89797 | -41.56672 | 7510 ft | 191 kts | 217° |
| 2026-05-05 02:04 | -21.90864 | -41.57546 | 7510 ft | 191 kts | 217° |
| 2026-05-05 02:04 | -21.91918 | -41.58409 | 7510 ft | 191 kts | 217° |
| 2026-05-05 02:04 | -21.92988 | -41.59287 | 7510 ft | 192 kts | 217° |
| 2026-05-05 02:05 | -21.94052 | -41.60158 | 7510 ft | 192 kts | 217° |
| 2026-05-05 02:05 | -21.95118 | -41.61032 | 7510 ft | 192 kts | 217° |
| 2026-05-05 02:05 | -21.96176 | -41.61900 | 7510 ft | 192 kts | 217° |
| 2026-05-05 02:05 | -21.97250 | -41.62781 | 7510 ft | 192 kts | 217° |
| 2026-05-05 02:06 | -21.98312 | -41.63652 | 7510 ft | 192 kts | 217° |
| 2026-05-05 02:06 | -21.99372 | -41.64522 | 7510 ft | 192 kts | 217° |
| 2026-05-05 02:06 | -22.00432 | -41.65391 | 7510 ft | 192 kts | 218° |
| 2026-05-05 02:06 | -22.01497 | -41.66266 | 7510 ft | 192 kts | 218° |
| 2026-05-05 02:07 | -22.02562 | -41.67140 | 7510 ft | 192 kts | 218° |
| 2026-05-05 02:07 | -22.03619 | -41.68008 | 7510 ft | 192 kts | 218° |
| 2026-05-05 02:07 | -22.04686 | -41.68884 | 7510 ft | 192 kts | 218° |
| 2026-05-05 02:07 | -22.05756 | -41.69762 | 7510 ft | 192 kts | 218° |
| 2026-05-05 02:08 | -22.06812 | -41.70631 | 7510 ft | 192 kts | 218° |
| 2026-05-05 02:08 | -22.07884 | -41.71511 | 7510 ft | 192 kts | 218° |
| 2026-05-05 02:08 | -22.08934 | -41.72374 | 7510 ft | 192 kts | 218° |
| 2026-05-05 02:08 | -22.10009 | -41.73258 | 7510 ft | 192 kts | 218° |
| 2026-05-05 02:09 | -22.11064 | -41.74125 | 7510 ft | 192 kts | 218° |
| 2026-05-05 02:09 | -22.12138 | -41.75008 | 7510 ft | 192 kts | 218° |
| 2026-05-05 02:09 | -22.13198 | -41.75880 | 7510 ft | 192 kts | 218° |
| 2026-05-05 02:09 | -22.14251 | -41.76746 | 7510 ft | 192 kts | 218° |
| 2026-05-05 02:10 | -22.15316 | -41.77623 | 7510 ft | 192 kts | 218° |
| 2026-05-05 02:10 | -22.16384 | -41.78502 | 7510 ft | 192 kts | 218° |
| 2026-05-05 02:10 | -22.17441 | -41.79372 | 7510 ft | 192 kts | 218° |
| 2026-05-05 02:10 | -22.18504 | -41.80247 | 7510 ft | 192 kts | 218° |
| 2026-05-05 02:11 | -22.19574 | -41.81128 | 7510 ft | 192 kts | 218° |
| 2026-05-05 02:11 | -22.20629 | -41.81997 | 7510 ft | 192 kts | 218° |
| 2026-05-05 02:11 | -22.21700 | -41.82879 | 7510 ft | 192 kts | 218° |
| 2026-05-05 02:11 | -22.22760 | -41.83752 | 7510 ft | 192 kts | 218° |
| 2026-05-05 02:12 | -22.23812 | -41.84620 | 7510 ft | 192 kts | 218° |
| 2026-05-05 02:12 | -22.25937 | -41.86371 | 7510 ft | 192 kts | 218° |
| 2026-05-05 02:12 | -22.27014 | -41.87259 | 7510 ft | 192 kts | 218° |
| 2026-05-05 02:13 | -22.28062 | -41.88124 | 7510 ft | 192 kts | 218° |
| 2026-05-05 02:13 | -22.29125 | -41.89000 | 7510 ft | 192 kts | 218° |
| 2026-05-05 02:13 | -22.30191 | -41.89880 | 7510 ft | 192 kts | 218° |
| 2026-05-05 02:13 | -22.31256 | -41.90759 | 7510 ft | 192 kts | 218° |
| 2026-05-05 02:14 | -22.32317 | -41.91635 | 7510 ft | 192 kts | 218° |
| 2026-05-05 02:14 | -22.33385 | -41.92516 | 7510 ft | 192 kts | 218° |
| 2026-05-05 02:14 | -22.34443 | -41.93390 | 7510 ft | 192 kts | 218° |
| 2026-05-05 02:14 | -22.35515 | -41.94276 | 7510 ft | 192 kts | 218° |
| 2026-05-05 02:15 | -22.36576 | -41.95151 | 7510 ft | 192 kts | 218° |
| 2026-05-05 02:15 | -22.37642 | -41.96032 | 7510 ft | 192 kts | 218° |
| 2026-05-05 02:15 | -22.38698 | -41.96905 | 7510 ft | 192 kts | 218° |
| 2026-05-05 02:15 | -22.39761 | -41.97784 | 7510 ft | 192 kts | 218° |
| 2026-05-05 02:16 | -22.40823 | -41.98662 | 7510 ft | 192 kts | 218° |
| 2026-05-05 02:16 | -22.41882 | -41.99537 | 7510 ft | 192 kts | 218° |
| 2026-05-05 02:16 | -22.42944 | -42.00415 | 7510 ft | 192 kts | 218° |
| 2026-05-05 02:16 | -22.44010 | -42.01297 | 7510 ft | 192 kts | 218° |
| 2026-05-05 02:17 | -22.45072 | -42.02175 | 7510 ft | 192 kts | 218° |
| 2026-05-05 02:17 | -22.46124 | -42.03046 | 7510 ft | 192 kts | 218° |
| 2026-05-05 02:17 | -22.47188 | -42.03927 | 7510 ft | 192 kts | 218° |
| 2026-05-05 02:17 | -22.48262 | -42.04816 | 7510 ft | 192 kts | 218° |
| 2026-05-05 02:18 | -22.49318 | -42.05691 | 7510 ft | 192 kts | 218° |
| 2026-05-05 02:18 | -22.50382 | -42.06572 | 7510 ft | 192 kts | 218° |
| 2026-05-05 02:18 | -22.51442 | -42.07449 | 7510 ft | 192 kts | 218° |
| 2026-05-05 02:18 | -22.52493 | -42.08339 | 7510 ft | 192 kts | 220° |
| 2026-05-05 02:19 | -22.53499 | -42.09295 | 7511 ft | 192 kts | 222° |
| 2026-05-05 02:19 | -22.54504 | -42.10257 | 7510 ft | 192 kts | 222° |
| 2026-05-05 02:19 | -22.55506 | -42.11218 | 7510 ft | 192 kts | 222° |
| 2026-05-05 02:19 | -22.56502 | -42.12171 | 7510 ft | 192 kts | 222° |
| 2026-05-05 02:20 | -22.57495 | -42.13123 | 7510 ft | 192 kts | 222° |
| 2026-05-05 02:20 | -22.58505 | -42.14089 | 7510 ft | 192 kts | 222° |
| 2026-05-05 02:20 | -22.59508 | -42.15050 | 7510 ft | 192 kts | 222° |
| 2026-05-05 02:20 | -22.60512 | -42.16011 | 7510 ft | 192 kts | 222° |
| 2026-05-05 02:21 | -22.61504 | -42.16961 | 7510 ft | 192 kts | 222° |
| 2026-05-05 02:21 | -22.62517 | -42.17932 | 7510 ft | 192 kts | 222° |
| 2026-05-05 02:21 | -22.63510 | -42.18883 | 7510 ft | 192 kts | 222° |
| 2026-05-05 02:21 | -22.64513 | -42.19844 | 7510 ft | 192 kts | 222° |
| 2026-05-05 02:22 | -22.65517 | -42.20807 | 7510 ft | 192 kts | 222° |
| 2026-05-05 02:22 | -22.66526 | -42.21774 | 7510 ft | 192 kts | 222° |
| 2026-05-05 02:22 | -22.67528 | -42.22735 | 7510 ft | 192 kts | 222° |
| 2026-05-05 02:22 | -22.68520 | -42.23686 | 7510 ft | 192 kts | 222° |
| 2026-05-05 02:23 | -22.69523 | -42.24649 | 7510 ft | 192 kts | 222° |
| 2026-05-05 02:23 | -22.70522 | -42.25607 | 7510 ft | 192 kts | 222° |
| 2026-05-05 02:23 | -22.71523 | -42.26568 | 7510 ft | 192 kts | 222° |
| 2026-05-05 02:23 | -22.72534 | -42.27538 | 7510 ft | 192 kts | 222° |
| 2026-05-05 02:24 | -22.73529 | -42.28494 | 7510 ft | 192 kts | 222° |
| 2026-05-05 02:24 | -22.74528 | -42.29453 | 7510 ft | 192 kts | 222° |
| 2026-05-05 02:24 | -22.75535 | -42.30420 | 7510 ft | 192 kts | 222° |
| 2026-05-05 02:24 | -22.76530 | -42.31376 | 7510 ft | 192 kts | 222° |
| 2026-05-05 02:25 | -22.77540 | -42.32347 | 7510 ft | 192 kts | 222° |
| 2026-05-05 02:25 | -22.78529 | -42.33297 | 7510 ft | 192 kts | 222° |
| 2026-05-05 02:25 | -22.79534 | -42.34263 | 7510 ft | 192 kts | 222° |
| 2026-05-05 02:25 | -22.80534 | -42.35225 | 7510 ft | 192 kts | 222° |
| 2026-05-05 02:26 | -22.81540 | -42.36192 | 7510 ft | 192 kts | 222° |
| 2026-05-05 02:26 | -22.82535 | -42.37149 | 7510 ft | 192 kts | 222° |
| 2026-05-05 02:26 | -22.83532 | -42.38108 | 7510 ft | 192 kts | 222° |
| 2026-05-05 02:26 | -22.84538 | -42.39076 | 7510 ft | 192 kts | 222° |
| 2026-05-05 02:27 | -22.85534 | -42.40035 | 7510 ft | 192 kts | 222° |
| 2026-05-05 02:27 | -22.86532 | -42.40996 | 7510 ft | 192 kts | 222° |
| 2026-05-05 02:27 | -22.87540 | -42.41966 | 7510 ft | 192 kts | 222° |
| 2026-05-05 02:27 | -22.88530 | -42.42920 | 7510 ft | 192 kts | 222° |
| 2026-05-05 02:28 | -22.89544 | -42.43897 | 7510 ft | 192 kts | 222° |
| 2026-05-05 02:28 | -22.90537 | -42.44853 | 7510 ft | 192 kts | 222° |
| 2026-05-05 02:28 | -22.91536 | -42.45816 | 7510 ft | 192 kts | 222° |
| 2026-05-05 02:28 | -22.92535 | -42.46779 | 7510 ft | 192 kts | 222° |
| 2026-05-05 02:29 | -22.93538 | -42.47745 | 7510 ft | 192 kts | 222° |
| 2026-05-05 02:29 | -22.94539 | -42.48711 | 7510 ft | 192 kts | 222° |
| 2026-05-05 02:29 | -22.95489 | -42.49721 | 7500 ft | 192 kts | 237° |
| 2026-05-05 02:29 | -22.95906 | -42.51094 | 7516 ft | 191 kts | 258° |
| 2026-05-05 02:30 | -22.96162 | -42.52516 | 7511 ft | 192 kts | 259° |
| 2026-05-05 02:30 | -22.96400 | -42.53932 | 7511 ft | 192 kts | 260° |
| 2026-05-05 02:30 | -22.96638 | -42.55364 | 7510 ft | 192 kts | 260° |
| 2026-05-05 02:30 | -22.96873 | -42.56788 | 7510 ft | 192 kts | 260° |
| 2026-05-05 02:31 | -22.97106 | -42.58199 | 7510 ft | 192 kts | 260° |
| 2026-05-05 02:31 | -22.97340 | -42.59620 | 7510 ft | 192 kts | 260° |
| 2026-05-05 02:31 | -22.97576 | -42.61056 | 7510 ft | 192 kts | 260° |
| 2026-05-05 02:31 | -22.97809 | -42.62472 | 7510 ft | 192 kts | 260° |
| 2026-05-05 02:32 | -22.98045 | -42.63911 | 7510 ft | 192 kts | 260° |
| 2026-05-05 02:32 | -22.98279 | -42.65334 | 7510 ft | 192 kts | 260° |
| 2026-05-05 02:32 | -22.98510 | -42.66745 | 7510 ft | 192 kts | 260° |
| 2026-05-05 02:32 | -22.98746 | -42.68184 | 7510 ft | 192 kts | 260° |
| 2026-05-05 02:33 | -22.98978 | -42.69601 | 7510 ft | 192 kts | 260° |
| 2026-05-05 02:33 | -22.99212 | -42.71029 | 7510 ft | 192 kts | 260° |
| 2026-05-05 02:33 | -22.99444 | -42.72449 | 7510 ft | 192 kts | 260° |
| 2026-05-05 02:33 | -22.99677 | -42.73874 | 7510 ft | 192 kts | 260° |
| 2026-05-05 02:34 | -22.99913 | -42.75313 | 7510 ft | 192 kts | 260° |
| 2026-05-05 02:34 | -23.00145 | -42.76735 | 7510 ft | 192 kts | 260° |
| 2026-05-05 02:34 | -23.00378 | -42.78163 | 7510 ft | 192 kts | 260° |
| 2026-05-05 02:34 | -23.00611 | -42.79592 | 7510 ft | 192 kts | 260° |
| 2026-05-05 02:35 | -23.00840 | -42.80998 | 7510 ft | 192 kts | 260° |
| 2026-05-05 02:35 | -23.01074 | -42.82432 | 7510 ft | 192 kts | 260° |
| 2026-05-05 02:35 | -23.01307 | -42.83863 | 7510 ft | 192 kts | 260° |
| 2026-05-05 02:35 | -23.01539 | -42.85291 | 7510 ft | 192 kts | 260° |
| 2026-05-05 02:36 | -23.01770 | -42.86711 | 7510 ft | 192 kts | 260° |
| 2026-05-05 02:36 | -23.02003 | -42.88141 | 7510 ft | 192 kts | 260° |
| 2026-05-05 02:36 | -23.02233 | -42.89555 | 7510 ft | 192 kts | 260° |
| 2026-05-05 02:36 | -23.02464 | -42.90978 | 7510 ft | 192 kts | 260° |
| 2026-05-05 02:37 | -23.02696 | -42.92412 | 7510 ft | 192 kts | 260° |
| 2026-05-05 02:37 | -23.02928 | -42.93840 | 7510 ft | 192 kts | 260° |
| 2026-05-05 02:37 | -23.03160 | -42.95271 | 7510 ft | 192 kts | 260° |
| 2026-05-05 02:37 | -23.03390 | -42.96690 | 7510 ft | 192 kts | 260° |
| 2026-05-05 02:38 | -23.03622 | -42.98126 | 7510 ft | 192 kts | 260° |
| 2026-05-05 02:38 | -23.03850 | -42.99535 | 7510 ft | 192 kts | 260° |
| 2026-05-05 02:38 | -23.04061 | -43.00973 | 7511 ft | 192 kts | 263° |
| 2026-05-05 02:38 | -23.04223 | -43.02415 | 7511 ft | 192 kts | 263° |
| 2026-05-05 02:39 | -23.04380 | -43.03845 | 7510 ft | 192 kts | 263° |
| 2026-05-05 02:39 | -23.04539 | -43.05288 | 7510 ft | 192 kts | 263° |
| 2026-05-05 02:39 | -23.04697 | -43.06728 | 7510 ft | 192 kts | 263° |
| 2026-05-05 02:39 | -23.04857 | -43.08172 | 7510 ft | 192 kts | 263° |
| 2026-05-05 02:40 | -23.05014 | -43.09602 | 7510 ft | 192 kts | 263° |
| 2026-05-05 02:40 | -23.05173 | -43.11044 | 7510 ft | 192 kts | 263° |
| 2026-05-05 02:40 | -23.05331 | -43.12471 | 7510 ft | 192 kts | 263° |
| 2026-05-05 02:40 | -23.05490 | -43.13917 | 7510 ft | 192 kts | 263° |
| 2026-05-05 02:41 | -23.05647 | -43.15347 | 7510 ft | 192 kts | 263° |
| 2026-05-05 02:41 | -23.05806 | -43.16799 | 7510 ft | 192 kts | 263° |
| 2026-05-05 02:41 | -23.05964 | -43.18229 | 7510 ft | 192 kts | 263° |
| 2026-05-05 02:41 | -23.06122 | -43.19668 | 7510 ft | 192 kts | 263° |
| 2026-05-05 02:42 | -23.06279 | -43.21100 | 7510 ft | 192 kts | 263° |
| 2026-05-05 02:42 | -23.06437 | -43.22547 | 7510 ft | 192 kts | 263° |
| 2026-05-05 02:42 | -23.06595 | -43.23990 | 7510 ft | 192 kts | 263° |
| 2026-05-05 02:42 | -23.06753 | -43.25431 | 7510 ft | 192 kts | 263° |
| 2026-05-05 02:43 | -23.06910 | -43.26871 | 7510 ft | 192 kts | 263° |
| 2026-05-05 02:43 | -23.07065 | -43.28293 | 7510 ft | 192 kts | 263° |
| 2026-05-05 02:43 | -23.07223 | -43.29742 | 7510 ft | 192 kts | 263° |
| 2026-05-05 02:43 | -23.07379 | -43.31168 | 7510 ft | 192 kts | 263° |
| 2026-05-05 02:44 | -23.07536 | -43.32609 | 7510 ft | 192 kts | 263° |
| 2026-05-05 02:44 | -23.07692 | -43.34052 | 7510 ft | 192 kts | 263° |
| 2026-05-05 02:44 | -23.07849 | -43.35492 | 7510 ft | 192 kts | 263° |
| 2026-05-05 02:44 | -23.08006 | -43.36934 | 7510 ft | 192 kts | 263° |
| 2026-05-05 02:45 | -23.08161 | -43.38363 | 7510 ft | 192 kts | 263° |
| 2026-05-05 02:45 | -23.08318 | -43.39814 | 7510 ft | 192 kts | 263° |
| 2026-05-05 02:45 | -23.08472 | -43.41235 | 7510 ft | 192 kts | 263° |
| 2026-05-05 02:45 | -23.08628 | -43.42676 | 7510 ft | 192 kts | 263° |
| 2026-05-05 02:46 | -23.08784 | -43.44119 | 7510 ft | 192 kts | 263° |
| 2026-05-05 02:46 | -23.08940 | -43.45557 | 7510 ft | 192 kts | 263° |
| 2026-05-05 02:46 | -23.09094 | -43.46989 | 7510 ft | 192 kts | 263° |
| 2026-05-05 02:46 | -23.09363 | -43.48406 | 7510 ft | 192 kts | 256° |
| 2026-05-05 02:47 | -23.09698 | -43.49807 | 7510 ft | 192 kts | 255° |
| 2026-05-05 02:47 | -23.10038 | -43.51211 | 7510 ft | 192 kts | 255° |
| 2026-05-05 02:47 | -23.10376 | -43.52611 | 7510 ft | 192 kts | 255° |
| 2026-05-05 02:47 | -23.10716 | -43.54026 | 7510 ft | 192 kts | 255° |
| 2026-05-05 02:48 | -23.11052 | -43.55424 | 7510 ft | 192 kts | 255° |
| 2026-05-05 02:48 | -23.11389 | -43.56827 | 7510 ft | 192 kts | 255° |
| 2026-05-05 02:48 | -23.11721 | -43.58212 | 7510 ft | 192 kts | 255° |
| 2026-05-05 02:48 | -23.12058 | -43.59616 | 7510 ft | 192 kts | 255° |
| 2026-05-05 02:49 | -23.12394 | -43.61023 | 7510 ft | 192 kts | 255° |
| 2026-05-05 02:49 | -23.12731 | -43.62429 | 7510 ft | 192 kts | 255° |
| 2026-05-05 02:49 | -23.13067 | -43.63833 | 7510 ft | 192 kts | 255° |
| 2026-05-05 02:49 | -23.13402 | -43.65234 | 7510 ft | 192 kts | 256° |
| 2026-05-05 02:50 | -23.13735 | -43.66625 | 7510 ft | 192 kts | 256° |
| 2026-05-05 02:50 | -23.14070 | -43.68028 | 7510 ft | 192 kts | 256° |
| 2026-05-05 02:50 | -23.14405 | -43.69432 | 7510 ft | 192 kts | 256° |
| 2026-05-05 02:50 | -23.14740 | -43.70834 | 7510 ft | 192 kts | 256° |
| 2026-05-05 02:51 | -23.15073 | -43.72230 | 7510 ft | 192 kts | 256° |
| 2026-05-05 02:51 | -23.15411 | -43.73647 | 7510 ft | 192 kts | 256° |
| 2026-05-05 02:51 | -23.15743 | -43.75038 | 7510 ft | 192 kts | 256° |
| 2026-05-05 02:51 | -23.16078 | -43.76443 | 7510 ft | 192 kts | 256° |
| 2026-05-05 02:52 | -23.16410 | -43.77840 | 7510 ft | 192 kts | 256° |
| 2026-05-05 02:52 | -23.16747 | -43.79255 | 7510 ft | 192 kts | 256° |
| 2026-05-05 02:52 | -23.17078 | -43.80644 | 7510 ft | 192 kts | 256° |
| 2026-05-05 02:52 | -23.17416 | -43.82062 | 7510 ft | 192 kts | 256° |
| 2026-05-05 02:53 | -23.17748 | -43.83459 | 7510 ft | 192 kts | 256° |
| 2026-05-05 02:53 | -23.18082 | -43.84866 | 7510 ft | 192 kts | 256° |
| 2026-05-05 02:53 | -23.18413 | -43.86258 | 7510 ft | 192 kts | 256° |
| 2026-05-05 02:53 | -23.18749 | -43.87673 | 7510 ft | 192 kts | 256° |
| 2026-05-05 02:54 | -23.19079 | -43.89062 | 7510 ft | 192 kts | 256° |
| 2026-05-05 02:54 | -23.19414 | -43.90472 | 7510 ft | 192 kts | 256° |
| 2026-05-05 02:54 | -23.19748 | -43.91880 | 7510 ft | 192 kts | 256° |
| 2026-05-05 02:54 | -23.20077 | -43.93267 | 7510 ft | 192 kts | 256° |
| 2026-05-05 02:55 | -23.20412 | -43.94684 | 7510 ft | 192 kts | 256° |
| 2026-05-05 02:55 | -23.20745 | -43.96088 | 7510 ft | 192 kts | 256° |
| 2026-05-05 02:55 | -23.21077 | -43.97488 | 7510 ft | 192 kts | 256° |
| 2026-05-05 02:55 | -23.21406 | -43.98878 | 7510 ft | 192 kts | 256° |
| 2026-05-05 02:56 | -23.21741 | -44.00296 | 7510 ft | 192 kts | 256° |
| 2026-05-05 02:56 | -23.22069 | -44.01683 | 7510 ft | 192 kts | 256° |
| 2026-05-05 02:56 | -23.22401 | -44.03086 | 7510 ft | 192 kts | 256° |
| 2026-05-05 02:56 | -23.22736 | -44.04504 | 7510 ft | 192 kts | 256° |
| 2026-05-05 02:57 | -23.23063 | -44.05888 | 7510 ft | 192 kts | 256° |
| 2026-05-05 02:57 | -23.23396 | -44.07297 | 7510 ft | 192 kts | 256° |
| 2026-05-05 02:57 | -23.23730 | -44.08713 | 7510 ft | 192 kts | 256° |
| 2026-05-05 02:57 | -23.24062 | -44.10117 | 7510 ft | 192 kts | 256° |
| 2026-05-05 02:58 | -23.24390 | -44.11511 | 7510 ft | 192 kts | 256° |
| 2026-05-05 02:58 | -23.24679 | -44.12926 | 7511 ft | 192 kts | 259° |
| 2026-05-05 02:58 | -23.24938 | -44.14340 | 7510 ft | 192 kts | 259° |
| 2026-05-05 02:58 | -23.25200 | -44.15782 | 7510 ft | 192 kts | 259° |
| 2026-05-05 02:59 | -23.25459 | -44.17201 | 7510 ft | 192 kts | 259° |
| 2026-05-05 02:59 | -23.25717 | -44.18615 | 7510 ft | 192 kts | 259° |
| 2026-05-05 02:59 | -23.25977 | -44.20041 | 7510 ft | 192 kts | 259° |
| 2026-05-05 02:59 | -23.26235 | -44.21456 | 7510 ft | 192 kts | 259° |
| 2026-05-05 03:00 | -23.26496 | -44.22885 | 7510 ft | 192 kts | 259° |
| 2026-05-05 03:00 | -23.26753 | -44.24295 | 7510 ft | 192 kts | 259° |
| 2026-05-05 03:00 | -23.27013 | -44.25724 | 7510 ft | 192 kts | 259° |
| 2026-05-05 03:00 | -23.27273 | -44.27150 | 7510 ft | 192 kts | 259° |
| 2026-05-05 03:01 | -23.27528 | -44.28555 | 7510 ft | 192 kts | 259° |
| 2026-05-05 03:01 | -23.27787 | -44.29975 | 7510 ft | 192 kts | 259° |
| 2026-05-05 03:01 | -23.28048 | -44.31410 | 7510 ft | 192 kts | 259° |
| 2026-05-05 03:01 | -23.28306 | -44.32832 | 7510 ft | 192 kts | 259° |
| 2026-05-05 03:02 | -23.28562 | -44.34242 | 7510 ft | 192 kts | 259° |
| 2026-05-05 03:02 | -23.28823 | -44.35676 | 7510 ft | 192 kts | 259° |
| 2026-05-05 03:02 | -23.29078 | -44.37087 | 7510 ft | 192 kts | 259° |
| 2026-05-05 03:02 | -23.29335 | -44.38502 | 7510 ft | 192 kts | 259° |
| 2026-05-05 03:03 | -23.29592 | -44.39921 | 7510 ft | 192 kts | 259° |
| 2026-05-05 03:03 | -23.29853 | -44.41358 | 7510 ft | 192 kts | 259° |
| 2026-05-05 03:03 | -23.30109 | -44.42774 | 7510 ft | 192 kts | 259° |
| 2026-05-05 03:03 | -23.30366 | -44.44196 | 7510 ft | 192 kts | 259° |
| 2026-05-05 03:04 | -23.30714 | -44.45589 | 7509 ft | 192 kts | 250° |
| 2026-05-05 03:04 | -23.31180 | -44.46957 | 7510 ft | 192 kts | 249° |
| 2026-05-05 03:04 | -23.31650 | -44.48309 | 7510 ft | 192 kts | 249° |
| 2026-05-05 03:04 | -23.32123 | -44.49672 | 7510 ft | 192 kts | 249° |
| 2026-05-05 03:05 | -23.32594 | -44.51032 | 7510 ft | 192 kts | 249° |
| 2026-05-05 03:05 | -23.33057 | -44.52374 | 7510 ft | 192 kts | 249° |
| 2026-05-05 03:05 | -23.33529 | -44.53742 | 7510 ft | 192 kts | 249° |
| 2026-05-05 03:05 | -23.33994 | -44.55089 | 7510 ft | 192 kts | 249° |
| 2026-05-05 03:06 | -23.34468 | -44.56465 | 7510 ft | 192 kts | 249° |
| 2026-05-05 03:06 | -23.34934 | -44.57818 | 7510 ft | 192 kts | 249° |
| 2026-05-05 03:06 | -23.35401 | -44.59173 | 7510 ft | 192 kts | 249° |
| 2026-05-05 03:06 | -23.35870 | -44.60537 | 7510 ft | 192 kts | 249° |
| 2026-05-05 03:07 | -23.36338 | -44.61898 | 7510 ft | 192 kts | 249° |
| 2026-05-05 03:07 | -23.36804 | -44.63251 | 7510 ft | 192 kts | 249° |
| 2026-05-05 03:07 | -23.37268 | -44.64602 | 7510 ft | 192 kts | 249° |
| 2026-05-05 03:07 | -23.37737 | -44.65964 | 7510 ft | 192 kts | 250° |
| 2026-05-05 03:08 | -23.38205 | -44.67327 | 7510 ft | 192 kts | 250° |
| 2026-05-05 03:08 | -23.38654 | -44.68634 | 7510 ft | 192 kts | 250° |
| 2026-05-05 03:08 | -23.39121 | -44.69993 | 7510 ft | 192 kts | 250° |
| 2026-05-05 03:08 | -23.39586 | -44.71347 | 7510 ft | 192 kts | 250° |
| 2026-05-05 03:09 | -23.40057 | -44.72719 | 7510 ft | 192 kts | 250° |
| 2026-05-05 03:09 | -23.40524 | -44.74081 | 7510 ft | 192 kts | 250° |
| 2026-05-05 03:09 | -23.40988 | -44.75433 | 7510 ft | 192 kts | 250° |
| 2026-05-05 03:09 | -23.41456 | -44.76798 | 7510 ft | 192 kts | 250° |
| 2026-05-05 03:10 | -23.41922 | -44.78157 | 7510 ft | 192 kts | 250° |
| 2026-05-05 03:10 | -23.42383 | -44.79504 | 7510 ft | 192 kts | 250° |
| 2026-05-05 03:10 | -23.42849 | -44.80865 | 7510 ft | 192 kts | 250° |
| 2026-05-05 03:10 | -23.43319 | -44.82236 | 7510 ft | 192 kts | 250° |
| 2026-05-05 03:11 | -23.43782 | -44.83590 | 7510 ft | 192 kts | 250° |
| 2026-05-05 03:11 | -23.44248 | -44.84951 | 7510 ft | 192 kts | 250° |
| 2026-05-05 03:11 | -23.44716 | -44.86320 | 7510 ft | 192 kts | 250° |
| 2026-05-05 03:11 | -23.45177 | -44.87666 | 7510 ft | 192 kts | 250° |
| 2026-05-05 03:12 | -23.45645 | -44.89037 | 7510 ft | 192 kts | 250° |
| 2026-05-05 03:12 | -23.46115 | -44.90410 | 7510 ft | 192 kts | 250° |
| 2026-05-05 03:12 | -23.46580 | -44.91773 | 7510 ft | 192 kts | 250° |
| 2026-05-05 03:12 | -23.47039 | -44.93116 | 7510 ft | 192 kts | 250° |
| 2026-05-05 03:13 | -23.47509 | -44.94493 | 7510 ft | 192 kts | 250° |
| 2026-05-05 03:13 | -23.47971 | -44.95847 | 7510 ft | 192 kts | 250° |
| 2026-05-05 03:13 | -23.48434 | -44.97203 | 7510 ft | 192 kts | 250° |
| 2026-05-05 03:13 | -23.48900 | -44.98569 | 7510 ft | 192 kts | 250° |
| 2026-05-05 03:14 | -23.49368 | -44.99941 | 7510 ft | 192 kts | 250° |
| 2026-05-05 03:14 | -23.49830 | -45.01295 | 7510 ft | 192 kts | 250° |
| 2026-05-05 03:14 | -23.50293 | -45.02655 | 7510 ft | 192 kts | 250° |
| 2026-05-05 03:14 | -23.50758 | -45.04020 | 7510 ft | 192 kts | 250° |
| 2026-05-05 03:15 | -23.51225 | -45.05390 | 7510 ft | 192 kts | 250° |
| 2026-05-05 03:15 | -23.51686 | -45.06747 | 7510 ft | 192 kts | 250° |
| 2026-05-05 03:15 | -23.52115 | -45.08118 | 7506 ft | 192 kts | 259° |
| 2026-05-05 03:15 | -23.52202 | -45.09569 | 7513 ft | 191 kts | 269° |
| 2026-05-05 03:16 | -23.52222 | -45.11014 | 7511 ft | 192 kts | 269° |
| 2026-05-05 03:16 | -23.52238 | -45.12471 | 7510 ft | 192 kts | 269° |
| 2026-05-05 03:16 | -23.52254 | -45.13912 | 7510 ft | 192 kts | 269° |
| 2026-05-05 03:16 | -23.52271 | -45.15379 | 7510 ft | 192 kts | 269° |
| 2026-05-05 03:17 | -23.52289 | -45.16827 | 7510 ft | 192 kts | 269° |
| 2026-05-05 03:17 | -23.52307 | -45.18269 | 7510 ft | 192 kts | 269° |
| 2026-05-05 03:17 | -23.52325 | -45.19735 | 7510 ft | 192 kts | 269° |
| 2026-05-05 03:17 | -23.52343 | -45.21174 | 7510 ft | 192 kts | 269° |
| 2026-05-05 03:18 | -23.52361 | -45.22632 | 7510 ft | 192 kts | 269° |
| 2026-05-05 03:18 | -23.52379 | -45.24079 | 7510 ft | 192 kts | 269° |
| 2026-05-05 03:18 | -23.52397 | -45.25545 | 7510 ft | 192 kts | 269° |
| 2026-05-05 03:18 | -23.52415 | -45.26984 | 7510 ft | 192 kts | 269° |
| 2026-05-05 03:19 | -23.52450 | -45.29901 | 7510 ft | 192 kts | 269° |
| 2026-05-05 03:19 | -23.52467 | -45.31346 | 7510 ft | 192 kts | 269° |
| 2026-05-05 03:19 | -23.52484 | -45.32805 | 7510 ft | 192 kts | 269° |
| 2026-05-05 03:20 | -23.52501 | -45.34251 | 7510 ft | 192 kts | 269° |
| 2026-05-05 03:20 | -23.52518 | -45.35709 | 7510 ft | 192 kts | 269° |
| 2026-05-05 03:20 | -23.52535 | -45.37164 | 7510 ft | 192 kts | 269° |
| 2026-05-05 03:20 | -23.52551 | -45.38618 | 7510 ft | 192 kts | 269° |
| 2026-05-05 03:21 | -23.52568 | -45.40082 | 7510 ft | 192 kts | 269° |
| 2026-05-05 03:21 | -23.52584 | -45.41527 | 7510 ft | 192 kts | 269° |
| 2026-05-05 03:21 | -23.52601 | -45.42991 | 7510 ft | 192 kts | 269° |
| 2026-05-05 03:21 | -23.52617 | -45.44439 | 7510 ft | 192 kts | 269° |
| 2026-05-05 03:22 | -23.52632 | -45.45884 | 7510 ft | 192 kts | 269° |
| 2026-05-05 03:22 | -23.52648 | -45.47337 | 7510 ft | 192 kts | 269° |
| 2026-05-05 03:22 | -23.52664 | -45.48801 | 7510 ft | 192 kts | 269° |
| 2026-05-05 03:22 | -23.52680 | -45.50257 | 7510 ft | 192 kts | 269° |
| 2026-05-05 03:23 | -23.52695 | -45.51694 | 7510 ft | 192 kts | 269° |
| 2026-05-05 03:23 | -23.52710 | -45.53150 | 7510 ft | 192 kts | 269° |
| 2026-05-05 03:23 | -23.52728 | -45.54620 | 7510 ft | 192 kts | 269° |
| 2026-05-05 03:23 | -23.52746 | -45.56065 | 7510 ft | 192 kts | 269° |
| 2026-05-05 03:24 | -23.52764 | -45.57521 | 7510 ft | 192 kts | 269° |
| 2026-05-05 03:24 | -23.52780 | -45.58975 | 7510 ft | 192 kts | 269° |
| 2026-05-05 03:24 | -23.52794 | -45.60426 | 7510 ft | 192 kts | 269° |
| 2026-05-05 03:24 | -23.52809 | -45.61889 | 7510 ft | 192 kts | 269° |
| 2026-05-05 03:25 | -23.52823 | -45.63326 | 7510 ft | 192 kts | 269° |
| 2026-05-05 03:25 | -23.52838 | -45.64787 | 7510 ft | 192 kts | 269° |
| 2026-05-05 03:25 | -23.52852 | -45.66252 | 7510 ft | 192 kts | 270° |
| 2026-05-05 03:25 | -23.52865 | -45.67690 | 7509 ft | 192 kts | 270° |
| 2026-05-05 03:26 | -23.52879 | -45.69158 | 7509 ft | 192 kts | 270° |
| 2026-05-05 03:26 | -23.52893 | -45.70615 | 7509 ft | 192 kts | 270° |
| 2026-05-05 03:26 | -23.52907 | -45.72055 | 7510 ft | 192 kts | 270° |
| 2026-05-05 03:26 | -23.52920 | -45.73517 | 7510 ft | 192 kts | 270° |
| 2026-05-05 03:27 | -23.52933 | -45.74977 | 7509 ft | 192 kts | 270° |
| 2026-05-05 03:27 | -23.52946 | -45.76426 | 7509 ft | 192 kts | 270° |
| 2026-05-05 03:27 | -23.52959 | -45.77885 | 7510 ft | 192 kts | 270° |
| 2026-05-05 03:27 | -23.52972 | -45.79340 | 7510 ft | 192 kts | 270° |
| 2026-05-05 03:28 | -23.52985 | -45.80797 | 7510 ft | 192 kts | 270° |
| 2026-05-05 03:28 | -23.52997 | -45.82237 | 7510 ft | 192 kts | 270° |
| 2026-05-05 03:28 | -23.53010 | -45.83694 | 7510 ft | 192 kts | 270° |
| 2026-05-05 03:28 | -23.53093 | -45.85152 | 7507 ft | 192 kts | 262° |
| 2026-05-05 03:29 | -23.53300 | -45.86568 | 7510 ft | 192 kts | 261° |
| 2026-05-05 03:29 | -23.53517 | -45.88016 | 7510 ft | 192 kts | 261° |
| 2026-05-05 03:29 | -23.53729 | -45.89444 | 7510 ft | 192 kts | 261° |
| 2026-05-05 03:29 | -23.53943 | -45.90888 | 7510 ft | 192 kts | 261° |
| 2026-05-05 03:30 | -23.54153 | -45.92321 | 7510 ft | 192 kts | 261° |
| 2026-05-05 03:30 | -23.54364 | -45.93755 | 7510 ft | 192 kts | 261° |
| 2026-05-05 03:30 | -23.54577 | -45.95205 | 7510 ft | 192 kts | 261° |
| 2026-05-05 03:30 | -23.54760 | -45.96639 | 7212 ft | 187 kts | 263° |
| 2026-05-05 03:31 | -23.54882 | -45.97983 | 6715 ft | 175 kts | 269° |
| 2026-05-05 03:31 | -23.54851 | -45.99262 | 6296 ft | 162 kts | 276° |
| 2026-05-05 03:31 | -23.54693 | -46.00497 | 5945 ft | 175 kts | 280° |
| 2026-05-05 03:31 | -23.54363 | -46.01827 | 5683 ft | 184 kts | 288° |
| 2026-05-05 03:32 | -23.53900 | -46.03106 | 5669 ft | 177 kts | 289° |
| 2026-05-05 03:32 | -23.53508 | -46.04362 | 5581 ft | 178 kts | 290° |
| 2026-05-05 03:32 | -23.53050 | -46.05632 | 5441 ft | 180 kts | 295° |
| 2026-05-05 03:32 | -23.52546 | -46.06862 | 5372 ft | 178 kts | 292° |
| 2026-05-05 03:33 | -23.52106 | -46.08128 | 5225 ft | 178 kts | 294° |
| 2026-05-05 03:33 | -23.51707 | -46.09381 | 4920 ft | 178 kts | 284° |
| 2026-05-05 03:33 | -23.51502 | -46.10733 | 4557 ft | 180 kts | 270° |
| 2026-05-05 03:33 | -23.51646 | -46.12072 | 4109 ft | 187 kts | 261° |
| 2026-05-05 03:34 | -23.51918 | -46.13377 | 3745 ft | 164 kts | 249° |
| 2026-05-05 03:34 | -23.52731 | -46.14078 | 3369 ft | 149 kts | 195° |
| 2026-05-05 03:34 | -23.53628 | -46.13845 | 3078 ft | 131 kts | 142° |
| 2026-05-05 03:34 | -23.54239 | -46.13208 | 2855 ft | 113 kts | 137° |
| 2026-05-05 03:35 | -23.54810 | -46.12808 | 2709 ft | 98 kts | 139° |
| 2026-05-05 03:35 | -23.55023 | -46.12218 | 2965 ft | 86 kts | 89° |
| 2026-05-05 03:35 | -23.55081 | -46.11585 | 3008 ft | 88 kts | 93° |
| 2026-05-05 03:35 | -23.55145 | -46.10942 | 3064 ft | 83 kts | 99° |
| 2026-05-05 03:36 | -23.55289 | -46.10313 | 2905 ft | 85 kts | 106° |
| 2026-05-05 03:36 | -23.55479 | -46.09705 | 2899 ft | 84 kts | 109° |
| 2026-05-05 03:36 | -23.55668 | -46.09059 | 2849 ft | 95 kts | 110° |
| 2026-05-05 03:36 | -23.55884 | -46.08424 | 2682 ft | 86 kts | 112° |
| 2026-05-05 03:37 | -23.56102 | -46.07841 | 2545 ft | 84 kts | 110° |
| 2026-05-05 03:37 | -23.56288 | -46.07294 | 2451 ft | 65 kts | 109° |
| 2026-05-05 03:37 | -23.56400 | -46.06944 | 2454 ft | 27 kts | 109° |
| 2026-05-05 03:37 | -23.56444 | -46.06801 | 2456 ft | 14 kts | 107° |
| 2026-05-05 03:38 | -23.56470 | -46.06739 | 2457 ft | 3 kts | 126° |
| 2026-05-05 03:38 | -23.56482 | -46.06749 | 2457 ft | 3 kts | 303° |
| 2026-05-05 03:38 | -23.56480 | -46.06782 | 2457 ft | 5 kts | 260° |
| 2026-05-05 03:38 | -23.56504 | -46.06790 | 2457 ft | 8 kts | 172° |
| 2026-05-05 03:39 | -23.56560 | -46.06791 | 2457 ft | 4 kts | 112° |
| 2026-05-05 03:39 | -23.56558 | -46.06780 | 2457 ft | 0 kts | 8° |
| 2026-05-05 03:39 | -23.56555 | -46.06782 | 2457 ft | 0 kts | 333° |